sensor_id;sensor_type;location;lat;lon;timestamp;temperature;humidity
29687;DHT22;16599;47.078;15.536;2023-04-06T00:00:53;-2.80;92.50
29687;DHT22;16599;47.078;15.536;2023-04-06T00:03:20;-2.90;92.80
29687;DHT22;16599;47.078;15.536;2023-04-06T00:05:48;-3.00;92.70
29687;DHT22;16599;47.078;15.536;2023-04-06T00:08:15;-3.10;93.00
29687;DHT22;16599;47.078;15.536;2023-04-06T00:10:42;-3.20;93.30
29687;DHT22;16599;47.078;15.536;2023-04-06T00:13:09;-3.20;93.40
29687;DHT22;16599;47.078;15.536;2023-04-06T00:15:36;-3.10;93.50
29687;DHT22;16599;47.078;15.536;2023-04-06T00:18:03;-3.10;93.40
29687;DHT22;16599;47.078;15.536;2023-04-06T00:20:30;-2.80;93.30
29687;DHT22;16599;47.078;15.536;2023-04-06T00:22:57;-2.70;92.90
29687;DHT22;16599;47.078;15.536;2023-04-06T00:25:24;-3.00;92.50
29687;DHT22;16599;47.078;15.536;2023-04-06T00:27:51;-3.00;93.20
29687;DHT22;16599;47.078;15.536;2023-04-06T00:30:18;-3.00;93.10
29687;DHT22;16599;47.078;15.536;2023-04-06T00:32:46;-3.10;93.00
29687;DHT22;16599;47.078;15.536;2023-04-06T00:35:13;-3.30;94.10
29687;DHT22;16599;47.078;15.536;2023-04-06T00:37:39;-3.30;93.60
29687;DHT22;16599;47.078;15.536;2023-04-06T00:40:07;-3.00;93.60
29687;DHT22;16599;47.078;15.536;2023-04-06T00:42:34;-3.10;93.20
29687;DHT22;16599;47.078;15.536;2023-04-06T00:45:01;-3.00;93.20
29687;DHT22;16599;47.078;15.536;2023-04-06T00:47:28;-3.20;93.10
29687;DHT22;16599;47.078;15.536;2023-04-06T00:49:56;-3.10;93.10
29687;DHT22;16599;47.078;15.536;2023-04-06T00:52:23;-3.20;93.10
29687;DHT22;16599;47.078;15.536;2023-04-06T00:54:50;-3.10;93.00
29687;DHT22;16599;47.078;15.536;2023-04-06T00:57:17;-3.10;92.90
29687;DHT22;16599;47.078;15.536;2023-04-06T00:59:45;-3.20;93.00
29687;DHT22;16599;47.078;15.536;2023-04-06T01:02:12;-3.20;93.30
29687;DHT22;16599;47.078;15.536;2023-04-06T01:04:39;-3.00;93.10
29687;DHT22;16599;47.078;15.536;2023-04-06T01:07:06;-3.10;93.00
29687;DHT22;16599;47.078;15.536;2023-04-06T01:09:34;-3.40;93.50
29687;DHT22;16599;47.078;15.536;2023-04-06T01:12:01;-3.50;94.00
29687;DHT22;16599;47.078;15.536;2023-04-06T01:14:28;-3.40;94.00
29687;DHT22;16599;47.078;15.536;2023-04-06T01:16:58;-3.50;93.90
29687;DHT22;16599;47.078;15.536;2023-04-06T01:19:25;-3.50;94.00
29687;DHT22;16599;47.078;15.536;2023-04-06T01:21:52;-3.70;94.20
29687;DHT22;16599;47.078;15.536;2023-04-06T01:24:20;-3.60;94.50
29687;DHT22;16599;47.078;15.536;2023-04-06T01:26:47;-3.60;94.30
29687;DHT22;16599;47.078;15.536;2023-04-06T01:29:14;-3.30;94.10
29687;DHT22;16599;47.078;15.536;2023-04-06T01:31:41;-3.30;93.50
29687;DHT22;16599;47.078;15.536;2023-04-06T01:34:08;-3.30;93.40
29687;DHT22;16599;47.078;15.536;2023-04-06T01:36:35;-3.20;93.10
29687;DHT22;16599;47.078;15.536;2023-04-06T01:39:02;-3.00;93.00
29687;DHT22;16599;47.078;15.536;2023-04-06T01:41:29;-3.00;92.60
29687;DHT22;16599;47.078;15.536;2023-04-06T01:43:56;-3.10;92.40
29687;DHT22;16599;47.078;15.536;2023-04-06T01:46:23;-3.00;92.50
29687;DHT22;16599;47.078;15.536;2023-04-06T01:48:50;-2.90;92.40
29687;DHT22;16599;47.078;15.536;2023-04-06T01:51:17;-3.00;92.60
29687;DHT22;16599;47.078;15.536;2023-04-06T01:53:44;-3.10;92.60
29687;DHT22;16599;47.078;15.536;2023-04-06T01:56:11;-3.20;92.90
29687;DHT22;16599;47.078;15.536;2023-04-06T01:58:38;-3.20;93.00
29687;DHT22;16599;47.078;15.536;2023-04-06T02:01:05;-3.60;93.70
29687;DHT22;16599;47.078;15.536;2023-04-06T02:03:32;-3.60;94.20
29687;DHT22;16599;47.078;15.536;2023-04-06T02:05:59;-3.80;94.30
29687;DHT22;16599;47.078;15.536;2023-04-06T02:08:26;-3.60;94.20
29687;DHT22;16599;47.078;15.536;2023-04-06T02:10:53;-3.50;94.30
29687;DHT22;16599;47.078;15.536;2023-04-06T02:13:19;-3.20;94.10
29687;DHT22;16599;47.078;15.536;2023-04-06T02:15:46;-3.20;93.50
29687;DHT22;16599;47.078;15.536;2023-04-06T02:18:13;-3.00;92.90
29687;DHT22;16599;47.078;15.536;2023-04-06T02:20:40;-3.30;92.40
29687;DHT22;16599;47.078;15.536;2023-04-06T02:23:07;-3.50;93.50
29687;DHT22;16599;47.078;15.536;2023-04-06T02:25:34;-3.40;93.40
29687;DHT22;16599;47.078;15.536;2023-04-06T02:28:01;-3.50;93.40
29687;DHT22;16599;47.078;15.536;2023-04-06T02:30:28;-3.60;93.50
29687;DHT22;16599;47.078;15.536;2023-04-06T02:32:55;-3.70;94.00
29687;DHT22;16599;47.078;15.536;2023-04-06T02:35:24;-3.50;94.00
29687;DHT22;16599;47.078;15.536;2023-04-06T02:37:51;-4.00;94.10
29687;DHT22;16599;47.078;15.536;2023-04-06T02:40:18;-3.90;95.30
29687;DHT22;16599;47.078;15.536;2023-04-06T02:42:45;-3.80;95.20
29687;DHT22;16599;47.078;15.536;2023-04-06T02:45:12;-3.90;95.00
29687;DHT22;16599;47.078;15.536;2023-04-06T02:47:38;-3.80;95.10
29687;DHT22;16599;47.078;15.536;2023-04-06T02:50:06;-3.90;95.10
29687;DHT22;16599;47.078;15.536;2023-04-06T02:52:33;-3.70;95.20
29687;DHT22;16599;47.078;15.536;2023-04-06T02:54:59;-4.00;94.70
29687;DHT22;16599;47.078;15.536;2023-04-06T02:57:26;-4.00;95.50
29687;DHT22;16599;47.078;15.536;2023-04-06T02:59:53;-3.80;95.40
29687;DHT22;16599;47.078;15.536;2023-04-06T03:02:20;-3.70;95.00
29687;DHT22;16599;47.078;15.536;2023-04-06T03:04:47;-3.50;94.50
29687;DHT22;16599;47.078;15.536;2023-04-06T03:07:14;-3.40;94.20
29687;DHT22;16599;47.078;15.536;2023-04-06T03:09:41;-3.70;94.00
29687;DHT22;16599;47.078;15.536;2023-04-06T03:12:08;-3.80;94.70
29687;DHT22;16599;47.078;15.536;2023-04-06T03:14:36;-4.00;94.80
29687;DHT22;16599;47.078;15.536;2023-04-06T03:17:02;-3.90;94.90
29687;DHT22;16599;47.078;15.536;2023-04-06T03:19:29;-3.90;94.70
29687;DHT22;16599;47.078;15.536;2023-04-06T03:21:56;-4.30;95.10
29687;DHT22;16599;47.078;15.536;2023-04-06T03:24:23;-4.50;95.90
29687;DHT22;16599;47.078;15.536;2023-04-06T03:26:50;-4.30;96.30
29687;DHT22;16599;47.078;15.536;2023-04-06T03:29:17;-4.30;95.80
29687;DHT22;16599;47.078;15.536;2023-04-06T03:31:44;-4.30;96.10
29687;DHT22;16599;47.078;15.536;2023-04-06T03:34:11;-4.10;96.10
29687;DHT22;16599;47.078;15.536;2023-04-06T03:36:38;-4.10;95.30
29687;DHT22;16599;47.078;15.536;2023-04-06T03:39:05;-4.10;95.70
29687;DHT22;16599;47.078;15.536;2023-04-06T03:41:32;-4.00;95.40
29687;DHT22;16599;47.078;15.536;2023-04-06T03:43:59;-4.10;95.30
29687;DHT22;16599;47.078;15.536;2023-04-06T03:46:26;-3.90;95.40
29687;DHT22;16599;47.078;15.536;2023-04-06T03:48:53;-4.20;95.20
29687;DHT22;16599;47.078;15.536;2023-04-06T03:51:20;-4.20;95.90
29687;DHT22;16599;47.078;15.536;2023-04-06T03:53:47;-4.10;95.50
29687;DHT22;16599;47.078;15.536;2023-04-06T03:56:14;-4.10;95.70
29687;DHT22;16599;47.078;15.536;2023-04-06T03:58:41;-4.40;95.80
29687;DHT22;16599;47.078;15.536;2023-04-06T04:01:08;-4.20;96.00
29687;DHT22;16599;47.078;15.536;2023-04-06T04:03:34;-4.50;95.50
29687;DHT22;16599;47.078;15.536;2023-04-06T04:06:02;-4.50;96.20
29687;DHT22;16599;47.078;15.536;2023-04-06T04:08:29;-4.30;95.80
29687;DHT22;16599;47.078;15.536;2023-04-06T04:10:55;-4.40;95.60
29687;DHT22;16599;47.078;15.536;2023-04-06T04:13:22;-4.50;95.90
29687;DHT22;16599;47.078;15.536;2023-04-06T04:15:49;-4.40;96.50
29687;DHT22;16599;47.078;15.536;2023-04-06T04:18:16;-4.40;96.00
29687;DHT22;16599;47.078;15.536;2023-04-06T04:20:43;-4.40;96.10
29687;DHT22;16599;47.078;15.536;2023-04-06T04:23:10;-4.70;95.90
29687;DHT22;16599;47.078;15.536;2023-04-06T04:25:37;-4.50;96.40
29687;DHT22;16599;47.078;15.536;2023-04-06T04:28:04;-4.20;95.90
29687;DHT22;16599;47.078;15.536;2023-04-06T04:30:31;-4.30;95.20
29687;DHT22;16599;47.078;15.536;2023-04-06T04:32:58;-4.10;95.40
29687;DHT22;16599;47.078;15.536;2023-04-06T04:35:25;-4.10;94.70
29687;DHT22;16599;47.078;15.536;2023-04-06T04:37:51;-3.90;95.00
29687;DHT22;16599;47.078;15.536;2023-04-06T04:40:18;-3.70;94.40
29687;DHT22;16599;47.078;15.536;2023-04-06T04:42:45;-3.80;93.90
29687;DHT22;16599;47.078;15.536;2023-04-06T04:45:12;-3.80;94.10
29687;DHT22;16599;47.078;15.536;2023-04-06T04:47:39;-3.90;94.10
29687;DHT22;16599;47.078;15.536;2023-04-06T04:50:07;-3.90;94.20
29687;DHT22;16599;47.078;15.536;2023-04-06T04:52:34;-3.90;94.10
29687;DHT22;16599;47.078;15.536;2023-04-06T04:55:01;-4.10;94.80
29687;DHT22;16599;47.078;15.536;2023-04-06T04:57:28;-4.10;94.90
29687;DHT22;16599;47.078;15.536;2023-04-06T04:59:55;-4.00;94.90
29687;DHT22;16599;47.078;15.536;2023-04-06T05:02:23;-4.10;95.00
29687;DHT22;16599;47.078;15.536;2023-04-06T05:04:50;-4.30;95.60
29687;DHT22;16599;47.078;15.536;2023-04-06T05:07:17;-4.40;96.40
29687;DHT22;16599;47.078;15.536;2023-04-06T05:09:45;-4.20;96.60
29687;DHT22;16599;47.078;15.536;2023-04-06T05:12:12;-4.10;96.60
29687;DHT22;16599;47.078;15.536;2023-04-06T05:14:39;-3.90;96.20
29687;DHT22;16599;47.078;15.536;2023-04-06T05:17:06;-3.70;95.70
29687;DHT22;16599;47.078;15.536;2023-04-06T05:19:33;-3.60;95.20
29687;DHT22;16599;47.078;15.536;2023-04-06T05:22:00;-3.60;95.10
29687;DHT22;16599;47.078;15.536;2023-04-06T05:24:27;-3.50;95.20
29687;DHT22;16599;47.078;15.536;2023-04-06T05:26:54;-3.40;95.00
29687;DHT22;16599;47.078;15.536;2023-04-06T05:29:21;-3.40;94.80
29687;DHT22;16599;47.078;15.536;2023-04-06T05:31:48;-3.20;94.80
29687;DHT22;16599;47.078;15.536;2023-04-06T05:34:15;-3.10;94.60
29687;DHT22;16599;47.078;15.536;2023-04-06T05:36:42;-3.10;94.40
29687;DHT22;16599;47.078;15.536;2023-04-06T05:39:09;-3.00;94.00
29687;DHT22;16599;47.078;15.536;2023-04-06T05:41:36;-3.00;94.30
29687;DHT22;16599;47.078;15.536;2023-04-06T05:44:03;-3.00;94.20
29687;DHT22;16599;47.078;15.536;2023-04-06T05:46:30;-2.90;94.30
29687;DHT22;16599;47.078;15.536;2023-04-06T05:48:57;-2.80;94.30
29687;DHT22;16599;47.078;15.536;2023-04-06T05:51:24;-2.70;94.50
29687;DHT22;16599;47.078;15.536;2023-04-06T05:53:51;-2.60;94.20
29687;DHT22;16599;47.078;15.536;2023-04-06T05:56:18;-2.40;93.90
29687;DHT22;16599;47.078;15.536;2023-04-06T05:58:45;-2.20;93.60
29687;DHT22;16599;47.078;15.536;2023-04-06T06:01:12;-2.10;93.20
29687;DHT22;16599;47.078;15.536;2023-04-06T06:03:39;-2.00;93.50
29687;DHT22;16599;47.078;15.536;2023-04-06T06:06:06;-2.00;93.40
29687;DHT22;16599;47.078;15.536;2023-04-06T06:08:33;-1.90;92.80
29687;DHT22;16599;47.078;15.536;2023-04-06T06:11:01;-1.80;92.40
29687;DHT22;16599;47.078;15.536;2023-04-06T06:13:28;-1.70;92.10
29687;DHT22;16599;47.078;15.536;2023-04-06T06:15:55;-1.40;92.30
29687;DHT22;16599;47.078;15.536;2023-04-06T06:18:22;-1.20;92.40
29687;DHT22;16599;47.078;15.536;2023-04-06T06:20:49;-1.10;92.00
29687;DHT22;16599;47.078;15.536;2023-04-06T06:23:16;-1.00;91.60
29687;DHT22;16599;47.078;15.536;2023-04-06T06:25:43;-1.00;91.40
29687;DHT22;16599;47.078;15.536;2023-04-06T06:28:10;-1.00;90.50
29687;DHT22;16599;47.078;15.536;2023-04-06T06:30:36;-0.90;90.30
29687;DHT22;16599;47.078;15.536;2023-04-06T06:33:03;-0.70;90.20
29687;DHT22;16599;47.078;15.536;2023-04-06T06:35:30;-0.50;90.80
29687;DHT22;16599;47.078;15.536;2023-04-06T06:37:57;-0.20;90.80
29687;DHT22;16599;47.078;15.536;2023-04-06T06:40:24;0.00;90.40
29687;DHT22;16599;47.078;15.536;2023-04-06T06:42:52;0.00;87.90
29687;DHT22;16599;47.078;15.536;2023-04-06T06:45:19;0.20;89.70
29687;DHT22;16599;47.078;15.536;2023-04-06T06:47:46;0.40;90.20
29687;DHT22;16599;47.078;15.536;2023-04-06T06:50:14;0.60;89.90
29687;DHT22;16599;47.078;15.536;2023-04-06T06:52:41;0.70;88.70
29687;DHT22;16599;47.078;15.536;2023-04-06T06:55:12;0.90;88.20
29687;DHT22;16599;47.078;15.536;2023-04-06T06:57:39;1.10;87.40
29687;DHT22;16599;47.078;15.536;2023-04-06T07:00:21;1.30;87.00
29687;DHT22;16599;47.078;15.536;2023-04-06T07:02:48;1.60;87.10
29687;DHT22;16599;47.078;15.536;2023-04-06T07:05:15;1.80;86.00
29687;DHT22;16599;47.078;15.536;2023-04-06T07:07:49;2.00;80.80
29687;DHT22;16599;47.078;15.536;2023-04-06T07:10:16;2.10;79.10
29687;DHT22;16599;47.078;15.536;2023-04-06T07:12:43;2.30;74.00
29687;DHT22;16599;47.078;15.536;2023-04-06T07:15:10;2.60;72.60
29687;DHT22;16599;47.078;15.536;2023-04-06T07:17:37;2.70;69.90
29687;DHT22;16599;47.078;15.536;2023-04-06T07:20:04;2.90;76.20
29687;DHT22;16599;47.078;15.536;2023-04-06T07:22:32;3.10;75.60
29687;DHT22;16599;47.078;15.536;2023-04-06T07:24:59;3.40;73.70
29687;DHT22;16599;47.078;15.536;2023-04-06T07:27:26;3.40;68.10
29687;DHT22;16599;47.078;15.536;2023-04-06T07:29:53;3.60;68.30
29687;DHT22;16599;47.078;15.536;2023-04-06T07:32:20;3.70;69.10
29687;DHT22;16599;47.078;15.536;2023-04-06T07:34:47;3.70;66.70
29687;DHT22;16599;47.078;15.536;2023-04-06T07:37:13;3.80;67.30
29687;DHT22;16599;47.078;15.536;2023-04-06T07:39:40;3.70;67.80
29687;DHT22;16599;47.078;15.536;2023-04-06T07:42:07;3.70;66.90
29687;DHT22;16599;47.078;15.536;2023-04-06T07:44:34;4.00;68.00
29687;DHT22;16599;47.078;15.536;2023-04-06T07:47:01;4.30;67.60
29687;DHT22;16599;47.078;15.536;2023-04-06T07:49:28;4.30;65.60
29687;DHT22;16599;47.078;15.536;2023-04-06T07:51:55;4.30;66.00
29687;DHT22;16599;47.078;15.536;2023-04-06T07:54:22;4.20;64.80
29687;DHT22;16599;47.078;15.536;2023-04-06T07:56:49;4.30;65.00
29687;DHT22;16599;47.078;15.536;2023-04-06T07:59:16;4.40;65.20
29687;DHT22;16599;47.078;15.536;2023-04-06T08:01:43;4.50;65.90
29687;DHT22;16599;47.078;15.536;2023-04-06T08:04:10;4.80;64.40
29687;DHT22;16599;47.078;15.536;2023-04-06T08:06:38;4.80;64.20
29687;DHT22;16599;47.078;15.536;2023-04-06T08:09:04;4.80;64.30
29687;DHT22;16599;47.078;15.536;2023-04-06T08:11:31;4.80;64.10
29687;DHT22;16599;47.078;15.536;2023-04-06T08:13:58;5.00;65.20
29687;DHT22;16599;47.078;15.536;2023-04-06T08:16:25;5.30;65.30
29687;DHT22;16599;47.078;15.536;2023-04-06T08:18:52;5.10;63.00
29687;DHT22;16599;47.078;15.536;2023-04-06T08:21:19;5.10;62.80
29687;DHT22;16599;47.078;15.536;2023-04-06T08:23:46;5.40;62.90
29687;DHT22;16599;47.078;15.536;2023-04-06T08:26:12;5.60;62.50
29687;DHT22;16599;47.078;15.536;2023-04-06T08:28:39;6.10;62.20
29687;DHT22;16599;47.078;15.536;2023-04-06T08:31:07;6.00;61.80
29687;DHT22;16599;47.078;15.536;2023-04-06T08:33:34;5.80;58.30
29687;DHT22;16599;47.078;15.536;2023-04-06T08:36:10;5.80;60.80
29687;DHT22;16599;47.078;15.536;2023-04-06T08:38:38;5.50;60.90
29687;DHT22;16599;47.078;15.536;2023-04-06T08:41:10;6.00;61.40
29687;DHT22;16599;47.078;15.536;2023-04-06T08:43:58;6.30;62.00
29687;DHT22;16599;47.078;15.536;2023-04-06T08:46:26;6.40;59.00
29687;DHT22;16599;47.078;15.536;2023-04-06T08:49:01;6.20;56.90
29687;DHT22;16599;47.078;15.536;2023-04-06T08:51:29;6.50;55.10
29687;DHT22;16599;47.078;15.536;2023-04-06T08:53:59;6.70;57.30
29687;DHT22;16599;47.078;15.536;2023-04-06T08:56:28;7.00;54.50
29687;DHT22;16599;47.078;15.536;2023-04-06T08:58:56;7.30;55.80
29687;DHT22;16599;47.078;15.536;2023-04-06T09:01:26;7.20;54.70
29687;DHT22;16599;47.078;15.536;2023-04-06T09:03:58;7.40;57.70
29687;DHT22;16599;47.078;15.536;2023-04-06T09:06:29;7.10;53.10
29687;DHT22;16599;47.078;15.536;2023-04-06T09:08:57;6.60;53.00
29687;DHT22;16599;47.078;15.536;2023-04-06T09:14:49;7.20;54.90
29687;DHT22;16599;47.078;15.536;2023-04-06T09:17:26;6.80;52.40
29687;DHT22;16599;47.078;15.536;2023-04-06T09:19:54;7.00;53.70
29687;DHT22;16599;47.078;15.536;2023-04-06T09:22:21;6.90;52.80
29687;DHT22;16599;47.078;15.536;2023-04-06T09:24:51;7.20;54.30
29687;DHT22;16599;47.078;15.536;2023-04-06T09:27:30;7.50;53.40
29687;DHT22;16599;47.078;15.536;2023-04-06T09:30:08;8.00;55.40
29687;DHT22;16599;47.078;15.536;2023-04-06T09:32:49;8.40;53.60
29687;DHT22;16599;47.078;15.536;2023-04-06T09:35:17;8.30;52.70
29687;DHT22;16599;47.078;15.536;2023-04-06T09:37:47;7.70;50.10
29687;DHT22;16599;47.078;15.536;2023-04-06T09:40:15;8.00;52.00
29687;DHT22;16599;47.078;15.536;2023-04-06T09:42:48;7.80;50.50
29687;DHT22;16599;47.078;15.536;2023-04-06T09:45:16;7.90;51.60
29687;DHT22;16599;47.078;15.536;2023-04-06T09:47:44;7.20;52.10
29687;DHT22;16599;47.078;15.536;2023-04-06T09:50:13;7.40;52.90
29687;DHT22;16599;47.078;15.536;2023-04-06T09:52:48;7.90;53.20
29687;DHT22;16599;47.078;15.536;2023-04-06T09:55:23;8.40;51.40
29687;DHT22;16599;47.078;15.536;2023-04-06T10:00:32;8.30;51.20
29687;DHT22;16599;47.078;15.536;2023-04-06T10:03:27;8.60;50.60
29687;DHT22;16599;47.078;15.536;2023-04-06T10:05:59;8.50;50.20
29687;DHT22;16599;47.078;15.536;2023-04-06T10:08:33;8.30;49.70
29687;DHT22;16599;47.078;15.536;2023-04-06T10:11:02;8.30;51.90
29687;DHT22;16599;47.078;15.536;2023-04-06T10:13:29;8.00;50.40
29687;DHT22;16599;47.078;15.536;2023-04-06T10:15:57;8.10;49.60
29687;DHT22;16599;47.078;15.536;2023-04-06T10:18:24;7.80;48.40
29687;DHT22;16599;47.078;15.536;2023-04-06T10:20:51;7.90;50.30
29687;DHT22;16599;47.078;15.536;2023-04-06T10:23:39;8.20;49.20
29687;DHT22;16599;47.078;15.536;2023-04-06T10:26:16;8.50;49.40
29687;DHT22;16599;47.078;15.536;2023-04-06T10:28:45;8.30;48.30
29687;DHT22;16599;47.078;15.536;2023-04-06T10:31:12;8.50;49.30
29687;DHT22;16599;47.078;15.536;2023-04-06T10:33:40;8.60;48.30
29687;DHT22;16599;47.078;15.536;2023-04-06T10:36:15;8.70;49.00
29687;DHT22;16599;47.078;15.536;2023-04-06T10:38:54;8.90;48.80
29687;DHT22;16599;47.078;15.536;2023-04-06T10:41:21;8.90;47.40
29687;DHT22;16599;47.078;15.536;2023-04-06T10:43:55;8.90;47.90
29687;DHT22;16599;47.078;15.536;2023-04-06T10:46:29;9.20;49.20
29687;DHT22;16599;47.078;15.536;2023-04-06T10:48:56;9.40;47.70
29687;DHT22;16599;47.078;15.536;2023-04-06T10:51:28;9.60;48.00
29687;DHT22;16599;47.078;15.536;2023-04-06T10:53:55;9.70;45.80
29687;DHT22;16599;47.078;15.536;2023-04-06T10:56:24;9.80;46.90
29687;DHT22;16599;47.078;15.536;2023-04-06T10:58:54;10.10;47.00
29687;DHT22;16599;47.078;15.536;2023-04-06T11:01:25;9.80;46.40
29687;DHT22;16599;47.078;15.536;2023-04-06T11:03:57;8.90;46.40
29687;DHT22;16599;47.078;15.536;2023-04-06T11:06:29;9.30;49.40
29687;DHT22;16599;47.078;15.536;2023-04-06T11:08:57;9.60;46.20
29687;DHT22;16599;47.078;15.536;2023-04-06T11:11:26;9.80;46.70
29687;DHT22;16599;47.078;15.536;2023-04-06T11:13:55;10.00;47.30
29687;DHT22;16599;47.078;15.536;2023-04-06T11:16:24;10.00;45.80
29687;DHT22;16599;47.078;15.536;2023-04-06T11:18:57;9.60;46.30
29687;DHT22;16599;47.078;15.536;2023-04-06T11:21:44;9.50;45.90
29687;DHT22;16599;47.078;15.536;2023-04-06T11:24:17;9.40;46.00
29687;DHT22;16599;47.078;15.536;2023-04-06T11:27:04;9.30;45.30
29687;DHT22;16599;47.078;15.536;2023-04-06T11:29:32;9.50;45.70
29687;DHT22;16599;47.078;15.536;2023-04-06T11:32:04;9.80;46.90
29687;DHT22;16599;47.078;15.536;2023-04-06T11:34:34;10.00;46.10
29687;DHT22;16599;47.078;15.536;2023-04-06T11:37:11;10.00;47.70
29687;DHT22;16599;47.078;15.536;2023-04-06T11:39:50;10.20;45.40
29687;DHT22;16599;47.078;15.536;2023-04-06T11:42:24;9.90;45.00
29687;DHT22;16599;47.078;15.536;2023-04-06T11:44:59;10.40;46.60
29687;DHT22;16599;47.078;15.536;2023-04-06T11:47:32;11.10;44.70
29687;DHT22;16599;47.078;15.536;2023-04-06T11:50:07;10.80;42.00
29687;DHT22;16599;47.078;15.536;2023-04-06T11:52:34;11.00;44.50
29687;DHT22;16599;47.078;15.536;2023-04-06T11:57:40;10.10;43.90
29687;DHT22;16599;47.078;15.536;2023-04-06T12:00:09;10.80;42.80
29687;DHT22;16599;47.078;15.536;2023-04-06T12:02:37;11.00;44.20
29687;DHT22;16599;47.078;15.536;2023-04-06T12:05:05;10.80;43.90
29687;DHT22;16599;47.078;15.536;2023-04-06T12:07:33;10.60;43.30
29687;DHT22;16599;47.078;15.536;2023-04-06T12:10:01;10.40;43.80
29687;DHT22;16599;47.078;15.536;2023-04-06T12:12:29;10.60;43.90
29687;DHT22;16599;47.078;15.536;2023-04-06T12:14:56;10.50;43.40
29687;DHT22;16599;47.078;15.536;2023-04-06T12:17:23;10.90;44.30
29687;DHT22;16599;47.078;15.536;2023-04-06T12:19:50;11.00;42.60
29687;DHT22;16599;47.078;15.536;2023-04-06T12:22:18;11.10;46.00
29687;DHT22;16599;47.078;15.536;2023-04-06T12:24:45;11.90;44.00
29687;DHT22;16599;47.078;15.536;2023-04-06T12:27:11;11.90;41.80
29687;DHT22;16599;47.078;15.536;2023-04-06T12:29:38;11.40;41.60
29687;DHT22;16599;47.078;15.536;2023-04-06T12:32:06;11.20;43.80
29687;DHT22;16599;47.078;15.536;2023-04-06T12:34:33;11.30;41.90
29687;DHT22;16599;47.078;15.536;2023-04-06T12:37:00;11.50;42.90
29687;DHT22;16599;47.078;15.536;2023-04-06T12:39:27;10.90;41.60
29687;DHT22;16599;47.078;15.536;2023-04-06T12:41:54;11.30;43.30
29687;DHT22;16599;47.078;15.536;2023-04-06T12:44:23;11.10;42.00
29687;DHT22;16599;47.078;15.536;2023-04-06T12:46:52;10.80;42.20
29687;DHT22;16599;47.078;15.536;2023-04-06T12:49:20;11.00;42.20
29687;DHT22;16599;47.078;15.536;2023-04-06T12:51:48;11.20;43.10
29687;DHT22;16599;47.078;15.536;2023-04-06T12:54:15;11.60;43.90
29687;DHT22;16599;47.078;15.536;2023-04-06T12:56:42;11.40;41.30
29687;DHT22;16599;47.078;15.536;2023-04-06T12:59:09;11.30;40.80
29687;DHT22;16599;47.078;15.536;2023-04-06T13:01:37;11.10;43.20
29687;DHT22;16599;47.078;15.536;2023-04-06T13:04:04;11.00;42.00
29687;DHT22;16599;47.078;15.536;2023-04-06T13:06:30;11.50;45.70
29687;DHT22;16599;47.078;15.536;2023-04-06T13:08:57;11.90;42.50
29687;DHT22;16599;47.078;15.536;2023-04-06T13:11:26;11.90;41.20
29687;DHT22;16599;47.078;15.536;2023-04-06T13:13:54;12.30;41.10
29687;DHT22;16599;47.078;15.536;2023-04-06T13:16:21;11.60;40.30
29687;DHT22;16599;47.078;15.536;2023-04-06T13:18:48;11.70;40.90
29687;DHT22;16599;47.078;15.536;2023-04-06T13:21:17;12.50;42.20
29687;DHT22;16599;47.078;15.536;2023-04-06T13:23:44;12.20;40.60
29687;DHT22;16599;47.078;15.536;2023-04-06T13:26:11;12.30;42.20
29687;DHT22;16599;47.078;15.536;2023-04-06T13:28:40;13.10;41.40
29687;DHT22;16599;47.078;15.536;2023-04-06T13:31:08;11.90;39.00
29687;DHT22;16599;47.078;15.536;2023-04-06T13:33:36;12.10;43.60
29687;DHT22;16599;47.078;15.536;2023-04-06T13:36:03;12.60;42.00
29687;DHT22;16599;47.078;15.536;2023-04-06T13:38:31;12.60;41.10
29687;DHT22;16599;47.078;15.536;2023-04-06T13:40:58;12.40;39.00
29687;DHT22;16599;47.078;15.536;2023-04-06T13:43:25;11.90;39.80
29687;DHT22;16599;47.078;15.536;2023-04-06T13:45:54;12.50;39.90
29687;DHT22;16599;47.078;15.536;2023-04-06T13:48:22;11.40;40.60
29687;DHT22;16599;47.078;15.536;2023-04-06T13:50:49;11.80;41.40
29687;DHT22;16599;47.078;15.536;2023-04-06T13:53:16;12.00;39.60
29687;DHT22;16599;47.078;15.536;2023-04-06T13:55:44;11.90;41.10
29687;DHT22;16599;47.078;15.536;2023-04-06T13:58:18;12.80;41.20
29687;DHT22;16599;47.078;15.536;2023-04-06T14:00:45;12.90;42.40
29687;DHT22;16599;47.078;15.536;2023-04-06T14:03:12;12.00;39.20
29687;DHT22;16599;47.078;15.536;2023-04-06T14:05:39;12.40;39.80
29687;DHT22;16599;47.078;15.536;2023-04-06T14:08:07;12.00;38.30
29687;DHT22;16599;47.078;15.536;2023-04-06T14:10:38;11.80;39.90
29687;DHT22;16599;47.078;15.536;2023-04-06T14:13:05;12.20;40.70
29687;DHT22;16599;47.078;15.536;2023-04-06T14:15:32;12.40;38.90
29687;DHT22;16599;47.078;15.536;2023-04-06T14:17:58;11.70;39.50
29687;DHT22;16599;47.078;15.536;2023-04-06T14:20:25;11.60;41.40
29687;DHT22;16599;47.078;15.536;2023-04-06T14:22:52;12.10;40.00
29687;DHT22;16599;47.078;15.536;2023-04-06T14:25:21;12.00;39.80
29687;DHT22;16599;47.078;15.536;2023-04-06T14:27:48;12.30;40.30
29687;DHT22;16599;47.078;15.536;2023-04-06T14:30:15;12.90;38.30
29687;DHT22;16599;47.078;15.536;2023-04-06T14:32:42;13.20;39.60
29687;DHT22;16599;47.078;15.536;2023-04-06T14:35:09;13.20;38.00
29687;DHT22;16599;47.078;15.536;2023-04-06T14:37:36;12.30;37.70
29687;DHT22;16599;47.078;15.536;2023-04-06T14:40:03;12.30;40.60
29687;DHT22;16599;47.078;15.536;2023-04-06T14:42:30;12.70;38.40
29687;DHT22;16599;47.078;15.536;2023-04-06T14:44:58;13.40;39.30
29687;DHT22;16599;47.078;15.536;2023-04-06T14:47:24;12.80;39.10
29687;DHT22;16599;47.078;15.536;2023-04-06T14:49:52;11.90;40.10
29687;DHT22;16599;47.078;15.536;2023-04-06T14:52:19;12.20;39.40
29687;DHT22;16599;47.078;15.536;2023-04-06T14:54:46;12.30;41.10
29687;DHT22;16599;47.078;15.536;2023-04-06T14:57:14;12.70;40.00
29687;DHT22;16599;47.078;15.536;2023-04-06T14:59:41;12.90;39.80
29687;DHT22;16599;47.078;15.536;2023-04-06T15:02:07;12.30;37.80
29687;DHT22;16599;47.078;15.536;2023-04-06T15:04:35;12.00;42.80
29687;DHT22;16599;47.078;15.536;2023-04-06T15:07:03;11.40;38.90
29687;DHT22;16599;47.078;15.536;2023-04-06T15:09:29;11.20;42.20
29687;DHT22;16599;47.078;15.536;2023-04-06T15:11:57;11.30;39.80
29687;DHT22;16599;47.078;15.536;2023-04-06T15:14:24;11.10;39.90
29687;DHT22;16599;47.078;15.536;2023-04-06T15:16:51;10.80;40.30
29687;DHT22;16599;47.078;15.536;2023-04-06T15:19:18;10.80;40.70
29687;DHT22;16599;47.078;15.536;2023-04-06T15:21:45;11.10;40.60
29687;DHT22;16599;47.078;15.536;2023-04-06T15:24:12;11.00;40.80
29687;DHT22;16599;47.078;15.536;2023-04-06T15:26:39;10.60;39.50
29687;DHT22;16599;47.078;15.536;2023-04-06T15:29:06;10.60;40.50
29687;DHT22;16599;47.078;15.536;2023-04-06T15:31:33;10.80;41.30
29687;DHT22;16599;47.078;15.536;2023-04-06T15:34:05;10.90;41.10